createdAt,value
2022-09-14T00:01:45.545Z,100979.19
2022-09-14T00:06:38.866Z,100985.38
2022-09-14T00:11:31.840Z,100975.91
2022-09-14T00:16:23.978Z,100967.50
2022-09-14T00:21:15.271Z,100955.03
2022-09-14T00:26:09.533Z,100950.22
2022-09-14T00:30:59.252Z,100932.16
2022-09-14T00:35:48.898Z,100933.31
2022-09-14T00:40:39.269Z,100918.00
2022-09-14T00:45:32.404Z,100915.41
2022-09-14T00:50:23.288Z,100915.38
2022-09-14T00:55:15.332Z,100904.72
2022-09-14T01:00:08.978Z,100899.41
2022-09-14T01:05:01.372Z,100890.63
2022-09-14T01:09:57.955Z,100881.88
2022-09-14T01:14:57.498Z,100872.09
2022-09-14T01:20:12.603Z,100871.16
2022-09-14T01:25:14.495Z,100868.66
2022-09-14T01:30:13.684Z,100870.38
2022-09-14T01:35:14.114Z,100872.19
2022-09-14T01:40:11.373Z,100873.31
2022-09-14T01:45:04.653Z,100864.78
2022-09-14T01:50:02.347Z,100859.69
2022-09-14T01:54:57.113Z,100858.13
2022-09-14T01:59:48.677Z,100850.50
2022-09-14T02:04:45.867Z,100844.50
2022-09-14T02:09:38.371Z,100839.47
2022-09-14T02:14:28.254Z,100834.38
2022-09-14T02:19:21.775Z,100842.03
2022-09-14T02:24:14.227Z,100837.88
2022-09-14T02:29:07.282Z,100823.25
2022-09-14T02:34:07.236Z,100823.22
2022-09-14T02:39:04.669Z,100818.03
2022-09-14T02:44:02.465Z,100808.63
2022-09-14T02:49:04.874Z,100815.59
2022-09-14T02:54:01.676Z,100806.16
2022-09-14T02:58:55.394Z,100802.06
2022-09-14T03:03:49.532Z,100805.50
2022-09-14T03:08:43.515Z,100806.28
2022-09-14T03:13:34.877Z,100801.13
2022-09-14T03:18:25.849Z,100796.84
2022-09-14T03:23:17.193Z,100785.53
2022-09-14T03:28:11.580Z,100777.72
2022-09-14T03:33:02.143Z,100783.03
2022-09-14T03:37:55.674Z,100773.44
2022-09-14T03:42:46.324Z,100766.44
2022-09-14T03:47:39.492Z,100779.44
2022-09-14T03:52:29.838Z,100776.88
2022-09-14T03:57:20.020Z,100776.84
2022-09-14T04:02:10.949Z,100776.06
2022-09-14T04:07:04.924Z,100769.19
2022-09-14T04:11:55.759Z,100765.78
2022-09-14T04:16:46.042Z,100764.00
2022-09-14T04:21:37.434Z,100763.16
2022-09-14T04:26:32.230Z,100765.75
2022-09-14T04:31:23.131Z,100764.13
2022-09-14T04:36:16.253Z,100765.84
2022-09-14T04:41:09.455Z,100764.22
2022-09-14T04:46:06.137Z,100774.56
2022-09-14T04:50:59.827Z,100775.41
2022-09-14T04:55:50.237Z,100759.81
2022-09-14T05:00:43.577Z,100754.63
2022-09-14T05:05:44.275Z,100764.22
2022-09-14T05:10:35.231Z,100764.25
2022-09-14T05:15:25.561Z,100751.28
2022-09-14T05:20:16.472Z,100753.91
2022-09-14T05:25:09.719Z,100757.41
2022-09-14T05:30:00.627Z,100749.56
2022-09-14T05:34:51.237Z,100738.25
2022-09-14T05:39:43.461Z,100750.44
2022-09-14T05:44:36.861Z,100767.88
2022-09-14T05:49:28.341Z,100762.66
2022-09-14T05:54:21.780Z,100743.75
2022-09-14T05:59:12.807Z,100749.81
2022-09-14T06:04:10.173Z,100761.19
2022-09-14T06:09:01.277Z,100760.47
2022-09-14T06:13:53.208Z,100752.75
2022-09-14T06:18:45.229Z,100752.03
2022-09-14T06:23:38.961Z,100747.81
2022-09-14T06:28:30.782Z,100734.09
2022-09-14T06:33:21.985Z,100723.75
2022-09-14T06:38:12.960Z,100726.34
2022-09-14T06:43:06.385Z,100728.94
2022-09-14T06:48:06.459Z,100722.09
2022-09-14T06:52:56.988Z,100722.97
2022-09-14T06:57:49.894Z,100727.25
2022-09-14T07:02:45.716Z,100727.31
2022-09-14T07:07:36.639Z,100715.19
2022-09-14T07:12:27.437Z,100717.94
2022-09-14T07:17:18.215Z,100715.38
2022-09-14T07:22:11.458Z,100718.84
2022-09-14T07:27:01.980Z,100711.84
2022-09-14T07:31:55.042Z,100715.22
2022-09-14T07:36:46.459Z,100694.31
2022-09-14T07:41:39.077Z,100685.53
2022-09-14T07:46:33.379Z,100705.44
2022-09-14T07:51:24.099Z,100714.00
2022-09-14T07:56:19.520Z,100721.81
2022-09-14T08:01:15.437Z,100719.16
2022-09-14T08:06:08.196Z,100725.28
2022-09-14T08:10:59.366Z,100716.72
2022-09-14T08:15:50.010Z,100719.34
2022-09-14T08:20:51.033Z,100713.22
2022-09-14T08:25:41.725Z,100705.31
2022-09-14T08:30:32.931Z,100718.25
2022-09-14T08:35:40.846Z,100725.19
2022-09-14T08:40:36.576Z,100711.25
2022-09-14T08:45:27.403Z,100719.00
2022-09-14T08:50:21.726Z,100701.50
2022-09-14T08:55:30.501Z,100704.06
2022-09-14T09:00:27.224Z,100709.09
2022-09-14T09:05:33.375Z,100722.00
2022-09-14T09:10:28.589Z,100723.50
2022-09-14T09:15:27.869Z,100715.59
2022-09-14T09:20:23.662Z,100709.44
2022-09-14T09:25:23.378Z,100711.06
2022-09-14T09:30:17.485Z,100714.56
2022-09-14T09:35:13.509Z,100710.97
2022-09-14T09:40:28.189Z,100712.09
2022-09-14T09:45:18.588Z,100703.47
2022-09-14T09:50:27.299Z,100704.28
2022-09-14T09:55:22.546Z,100702.56
2022-09-14T10:00:25.027Z,100701.72
2022-09-14T10:05:29.297Z,100698.16
2022-09-14T10:10:21.390Z,100689.53
2022-09-14T10:15:20.048Z,100697.31
2022-09-14T10:20:23.908Z,100689.72
2022-09-14T10:25:29.150Z,100716.34
2022-09-14T10:30:22.145Z,100719.66
2022-09-14T10:35:17.470Z,100717.91
2022-09-14T10:40:17.433Z,100707.66
2022-09-14T10:45:22.860Z,100710.97
2022-09-14T10:50:36.748Z,100708.34
2022-09-14T10:55:36.992Z,100717.91
2022-09-14T11:00:34.089Z,100717.00
2022-09-14T11:05:29.120Z,100719.53
2022-09-14T11:10:26.303Z,100717.09
2022-09-14T11:15:24.890Z,100704.00
2022-09-14T11:20:28.542Z,100691.19
2022-09-14T11:25:24.493Z,100718.84
2022-09-14T11:30:19.439Z,100716.06
2022-09-14T11:35:19.488Z,100705.63
2022-09-14T11:40:22.311Z,100681.41
2022-09-14T11:45:21.645Z,100693.44
2022-09-14T11:50:22.381Z,100684.78
2022-09-14T11:55:20.973Z,100691.56
2022-09-14T12:01:01.950Z,100685.44
2022-09-14T12:05:53.827Z,100680.00
2022-09-14T12:11:06.478Z,100685.94
2022-09-14T12:16:05.292Z,100692.81
2022-09-14T12:21:10.776Z,100697.09
2022-09-14T12:26:16.731Z,100691.75
2022-09-14T12:31:15.583Z,100688.19
2022-09-14T12:36:06.446Z,100679.31
2022-09-14T12:40:56.120Z,100684.41
2022-09-14T12:46:04.789Z,100680.84
2022-09-14T12:50:56.319Z,100673.66
2022-09-14T12:55:56.629Z,100671.78
2022-09-14T13:01:03.501Z,100670.72
2022-09-14T13:05:54.080Z,100661.03
2022-09-14T13:10:49.762Z,100669.56
2022-09-14T13:15:49.969Z,100673.81
2022-09-14T13:20:43.244Z,100669.22
2022-09-14T13:25:39.007Z,100658.63
2022-09-14T13:30:36.746Z,100658.34
2022-09-14T13:36:01.775Z,100666.66
2022-09-14T13:40:57.137Z,100659.56
2022-09-14T13:45:47.916Z,100655.66
2022-09-14T13:50:38.273Z,100656.38
2022-09-14T13:55:30.981Z,100649.28
2022-09-14T14:00:25.068Z,100650.59
2022-09-14T14:05:26.614Z,100642.25
2022-09-14T14:10:27.600Z,100622.72
2022-09-14T14:15:41.351Z,100637.38
2022-09-14T14:20:35.635Z,100635.81
2022-09-14T14:25:32.003Z,100632.34
2022-09-14T14:30:27.488Z,100626.84
2022-09-14T14:35:28.123Z,100613.41
2022-09-14T14:40:20.305Z,100606.94
2022-09-14T14:45:19.452Z,100604.41
2022-09-14T14:50:27.790Z,100592.50
2022-09-14T14:55:23.006Z,100599.00
2022-09-14T15:00:17.988Z,100592.38
2022-09-14T15:05:09.667Z,100587.19
2022-09-14T15:10:02.586Z,100582.22
2022-09-14T15:14:56.510Z,100585.78
2022-09-14T15:19:51.026Z,100577.41
2022-09-14T15:24:42.298Z,100578.19
2022-09-14T15:29:32.816Z,100572.19
2022-09-14T15:34:26.365Z,100572.28
2022-09-14T15:39:17.750Z,100571.47
2022-09-14T15:44:08.056Z,100583.72
2022-09-14T15:48:59.231Z,100573.50
2022-09-14T15:53:53.331Z,100577.03
2022-09-14T15:58:47.994Z,100584.91
2022-09-14T16:03:38.824Z,100597.94
2022-09-14T16:08:29.778Z,100603.03
2022-09-14T16:13:23.004Z,100608.94
2022-09-14T16:18:13.749Z,100614.84
2022-09-14T16:23:03.813Z,100604.38
2022-09-14T16:27:53.626Z,100613.78
2022-09-14T16:32:47.635Z,100619.97
2022-09-14T16:37:38.272Z,100627.03
2022-09-14T16:42:29.028Z,100629.59
2022-09-14T16:47:19.492Z,100632.34
2022-09-14T16:52:12.754Z,100635.84
2022-09-14T16:57:03.721Z,100634.34
2022-09-14T17:01:55.280Z,100628.38
2022-09-14T17:06:48.252Z,100624.25
2022-09-14T17:11:44.517Z,100625.19
2022-09-14T17:16:37.771Z,100625.34
2022-09-14T17:21:31.348Z,100629.13
2022-09-14T17:26:22.904Z,100630.19
2022-09-14T17:31:17.603Z,100633.97
2022-09-14T17:36:09.667Z,100638.59
2022-09-14T17:41:05.096Z,100639.78
2022-09-14T17:45:59.110Z,100637.41
2022-09-14T17:50:57.104Z,100645.63
2022-09-14T17:55:48.784Z,100654.38
2022-09-14T18:00:40.024Z,100651.91
2022-09-14T18:05:30.653Z,100666.97
2022-09-14T18:10:23.862Z,100671.44
2022-09-14T18:15:15.558Z,100678.44
2022-09-14T18:20:06.481Z,100683.63
2022-09-14T18:24:56.476Z,100676.78
2022-09-14T18:29:50.078Z,100670.13
2022-09-14T18:34:40.495Z,100684.16
2022-09-14T18:39:32.009Z,100686.78
2022-09-14T18:44:22.992Z,100688.63
2022-09-14T18:49:18.234Z,100685.19
2022-09-14T18:54:10.374Z,100673.97
2022-09-14T18:59:02.825Z,100681.81
2022-09-14T19:03:54.108Z,100688.06
2022-09-14T19:08:47.671Z,100696.75
2022-09-14T19:13:38.724Z,100687.19
2022-09-14T19:18:29.065Z,100688.22
2022-09-14T19:23:20.006Z,100698.63
2022-09-14T19:28:12.630Z,100708.97
2022-09-14T19:33:02.894Z,100701.22
2022-09-14T19:37:53.002Z,100713.44
2022-09-14T19:42:43.103Z,100711.72
2022-09-14T19:47:36.813Z,100705.88
2022-09-14T19:52:27.668Z,100705.81
2022-09-14T19:57:19.950Z,100708.44
2022-09-14T20:02:12.854Z,100710.19
2022-09-14T20:07:07.838Z,100711.19
2022-09-14T20:11:58.423Z,100722.47
2022-09-14T20:16:50.554Z,100727.69
2022-09-14T20:21:41.472Z,100726.94
2022-09-14T20:26:35.309Z,100733.13
2022-09-14T20:31:25.143Z,100728.13
2022-09-14T20:36:17.589Z,100733.41
2022-09-14T20:41:10.795Z,100737.84
2022-09-14T20:46:09.166Z,100738.88
2022-09-14T20:51:00.562Z,100734.66
2022-09-14T20:55:51.806Z,100744.31
2022-09-14T21:00:45.224Z,100742.69
2022-09-14T21:05:38.923Z,100737.59
2022-09-14T21:10:29.656Z,100752.28
2022-09-14T21:15:22.715Z,100762.81
2022-09-14T21:20:13.875Z,100758.41
2022-09-14T21:25:07.788Z,100758.44
2022-09-14T21:29:58.275Z,100765.47
2022-09-14T21:34:48.832Z,100772.50
2022-09-14T21:39:40.407Z,100767.41
2022-09-14T21:44:37.817Z,100768.41
2022-09-14T21:49:28.755Z,100768.59
2022-09-14T21:54:20.578Z,100772.19
2022-09-14T21:59:14.302Z,100777.53
2022-09-14T22:04:08.865Z,100779.38
2022-09-14T22:09:01.851Z,100777.81
2022-09-14T22:13:56.966Z,100771.81
2022-09-14T22:18:53.087Z,100772.72
2022-09-14T22:23:47.283Z,100781.50
2022-09-14T22:28:40.476Z,100772.06
2022-09-14T22:33:30.397Z,100771.31
2022-09-14T22:38:20.183Z,100777.31
2022-09-14T22:43:12.894Z,100769.47
2022-09-14T22:48:03.502Z,100776.41
2022-09-14T22:52:54.191Z,100767.78
2022-09-14T22:57:47.169Z,100780.03
2022-09-14T23:02:40.663Z,100789.31
2022-09-14T23:07:31.228Z,100784.88
2022-09-14T23:12:23.777Z,100790.03
2022-09-14T23:17:15.354Z,100791.78
2022-09-14T23:22:09.211Z,100796.09
2022-09-14T23:26:59.674Z,100802.19
2022-09-14T23:31:53.064Z,100813.56
2022-09-14T23:36:45.350Z,100816.25
2022-09-14T23:41:39.945Z,100816.28
2022-09-14T23:46:30.160Z,100812.06
2022-09-14T23:51:21.372Z,100812.09
2022-09-14T23:56:14.391Z,100809.44
